• Join FlightAware (Why Join?)
  • Login
  • US Flag 
01:44PM EDT


 

Airport Tracker/Info


-or-


 

Live Flight TrackerFlight Track Log ✈ EJA966 ✈ 25-Jul-2013 ✈ KAPC - KLAX

Flight Track Log - Related Links

Times and Time Zones

All times are in EDT time to prevent confusion due to time zone crossing. See the EJA966 flight status page for this flight to view local times or setup timezone preferences in your user account.

Time Position Orientation Groundspeed Altitude Reporting Facility
EDT Latitude Longitude Course Direction KTS MPH feet Rate Location/Type
03:00PM 37.7061 -121.7917 143° Southeast  Level Estimated
03:01PM 37.6214 -121.7109 143° Southeast  Level Estimated
03:02PM 37.5366 -121.6302 143° Southeast  Level Estimated
03:03PM 37.4518 -121.5497 143° Southeast  Level Estimated
03:04PM 37.3669 -121.4695 143° Southeast  Level Estimated
03:05PM 37.2820 -121.3893 143° Southeast  Level Estimated
03:06PM 37.1970 -121.3094 143° Southeast  Level Estimated
03:07PM 37.1120 -121.2297 143° Southeast  Level Estimated
03:07PM 38.2003 -122.2925 143° Southeast 190 219 1,000  Level Oakland Center
03:08PM 37.0269 -121.1501 143° Southeast  Level Estimated
03:08PM 38.1719 -122.3756 247° West 234 269 4,600  Level Oakland Center
03:09PM 36.9417 -121.0707 143° Southeast  Level Estimated
03:09PM 38.1022 -122.4092 201° Southwest 264 304 7,100  Level Oakland Center
03:10PM 36.8565 -120.9915 143° Southeast  Level Estimated
03:10PM 38.0283 -122.3936 171° South 281 323 9,800  Level Oakland Center
03:11PM 36.7713 -120.9124 143° Southeast  Level Estimated
03:11PM 37.9600 -122.3203 140° Southeast 318 366 11,700  Level Oakland Center
03:12PM 36.6860 -120.8336 143° Southeast  Level Estimated
03:12PM 37.8861 -122.2408 140° Southeast 344 396 13,300  Level Oakland Center
03:13PM 37.8072 -122.1572 140° Southeast 362 417 14,900 1,620 Climbing Oakland Center
03:14PM 37.7269 -122.0722 140° Southeast 373 429 16,700 1,380 Climbing Oakland Center
03:15PM 37.6456 -121.9878 141° Southeast 377 434 17,800 1,260 Climbing Oakland Center
03:16PM 37.5600 -121.9003 141° Southeast 390 449 19,300 1,500 Climbing Oakland Center
03:17PM 37.4558 -121.7917 140° Southeast 405 466 21,000 1,500 Climbing Oakland Center
03:18PM 37.3672 -121.7011 141° Southeast 411 473 22,400 1,560 Climbing Oakland Center
03:19PM 37.2711 -121.6028 141° Southeast 420 483 24,200 1,680 Climbing Oakland Center
03:20PM 37.1808 -121.5078 140° Southeast 424 488 25,900 1,440 Climbing Oakland Center
03:21PM 37.0867 -121.4125 141° Southeast 435 501 27,200 1,260 Climbing Oakland Center
03:22PM 36.9967 -121.3211 141° Southeast 443 510 28,600 1,260 Climbing Oakland Center
03:23PM 36.9003 -121.2206 140° Southeast 453 521 29,800 1,140 Climbing Oakland Center
03:24PM 36.7919 -121.1144 142° Southeast 462 532 31,000 540 Climbing Oakland Center
03:26PM 36.6911 -121.0108 141° Southeast 469 540 31,000  Level Oakland Center
03:27PM 36.5908 -120.9114 141° Southeast 459 528 31,000  Level Oakland Center
03:28PM 36.4722 -120.7922 141° Southeast 457 526 31,000  Level Oakland Center
03:29PM 36.3764 -120.6939 140° Southeast 447 514 31,000  Level Oakland Center
03:30PM 36.2781 -120.5989 142° Southeast 449 517 31,000  Level Oakland Center
03:31PM 36.1797 -120.5008 141° Southeast 451 519 31,000  Level Oakland Center
03:32PM 36.0836 -120.4064 142° Southeast 442 509 31,000  Level Oakland Center
03:33PM 35.9883 -120.3122 141° Southeast 439 505 31,000  Level Oakland Center
03:34PM 35.8911 -120.2178 142° Southeast 440 506 31,000  Level Oakland Center
03:35PM 35.7947 -120.1222 141° Southeast 440 506 31,000  Level Oakland Center
03:36PM 35.6778 -120.0075 141° Southeast 442 509 31,000  Level Oakland Center
03:37PM 35.6178 -119.9519 143° Southeast 447 514 31,000 -120 Level Los Angeles Center
03:38PM 35.4956 -119.8469 145° Southeast 444 511 30,800 -660 Descending Los Angeles Center
03:39PM 35.3964 -119.7592 144° Southeast 440 506 29,700 -1,140 Descending Los Angeles Center
03:40PM 35.2981 -119.6764 146° Southeast 431 496 28,500 -1,200 Descending Los Angeles Center
03:41PM 35.2025 -119.5950 145° Southeast 422 486 27,300 -1,200 Descending Los Angeles Center
03:42PM 35.1089 -119.5139 145° Southeast 415 478 26,100 -1,200 Descending Los Angeles Center
03:43PM 35.0178 -119.4372 145° Southeast 402 463 24,900 -1,440 Descending Los Angeles Center
03:44PM 34.9103 -119.3453 145° Southeast 395 455 23,200 -1,380 Descending Los Angeles Center
03:45PM 34.8386 -119.2850 145° Southeast 393 452 22,100 -1,380 Descending Los Angeles Center
03:46PM 34.7311 -119.1953 146° Southeast 391 450 20,400 -1,500 Descending Los Angeles Center
03:47PM 34.6386 -119.1175 145° Southeast 384 442 19,000 -1,380 Descending Los Angeles Center
03:48PM 34.5544 -119.0458 145° Southeast 369 425 17,600 -1,380 Descending Los Angeles Center
03:49PM 34.4722 -118.9772 145° Southeast 358 412 16,200 -1,380 Descending Los Angeles Center
03:50PM 34.3928 -118.9089 145° Southeast 350 403 14,800 -1,440 Descending Los Angeles Center
03:51PM 34.3008 -118.8589 156° South 360 414 13,200 -1,440 Descending Los Angeles Center
03:52PM 34.1914 -118.8192 163° South 341 392 11,900 -1,140 Descending Los Angeles Center
03:53PM 34.1036 -118.7875 163° South 330 380 10,900 -960 Descending Los Angeles Center
03:54PM 34.0364 -118.7111 137° Southeast 299 344 10,000 -600 Descending Los Angeles Center
03:55PM 34.0267 -118.6228 98° East 265 305 9,700 -720 Descending Los Angeles Center
03:56PM 34.0186 -118.5403 97° East 248 285 8,600 -960 Descending Los Angeles Center
03:57PM 34.0108 -118.4650 97° East 210 242 7,800 -960 Descending Los Angeles Center
03:58PM 34.0181 -118.3969 83° East 200 230 6,600 -1,080 Descending Los Angeles Center
03:59PM 34.0244 -118.3306 83° East 199 229 5,600 -1,020 Descending Los Angeles Center
04:00PM 34.0292 -118.2636 85° East 200 230 4,500 -780 Descending Los Angeles Center
04:01PM 34.0342 -118.1956 85° East 203 234 4,000 -600 Descending Los Angeles Center
04:02PM 34.0197 -118.1411 108° East 199 229 3,300 -720 Descending Los Angeles Center
04:04PM 33.9833 -118.1806 222° Southwest 187 215 2,600 -360 Descending Los Angeles Center
04:05PM 33.9678 -118.2486 255° West 180 207 2,600 -480 Level Los Angeles Center
04:06PM 33.9617 -118.3086 263° West 181 208 1,700 -780 Descending Los Angeles Center
04:07PM 33.9578 -118.3581 265° West 159 183 1,000 -720 Descending Los Angeles Center
04:08PM 33.9522 -118.3992 261° West 137 158 300 -720 Descending Los Angeles Center
04:10PM 33.9333 -118.4000 249° West  Level FlightAware Approximate
04:17PM 33.9425 -118.4081 249° West  Level Estimated